• Join FlightAware (Why Join?)
  • Login
  • US Flag 
02:51PM EDT


 

Airport Tracker/Info


-or-


 

Live Flight TrackerFlight Track Log ✈ N929SR ✈ 15-Apr-2013 ✈ KSDL - KMDW

Flight Track Log - Related Links

Times and Time Zones

All times are in EDT time to prevent confusion due to time zone crossing. See the N929SR flight status page for this flight to view local times or setup timezone preferences in your user account.

Time Position Orientation Groundspeed Altitude Reporting Facility
EDT Latitude Longitude Course Direction KTS MPH feet Rate Location/Type
04:13PM 33.6097 -111.9308 300° West 172 198 41,000  Level Albuquerque Center
04:14PM 33.6369 -111.9886 300° West 203 234 5,500 -15,540 Descending Albuquerque Center
04:15PM 33.6978 -111.9650 18° North 243 280 9,000 3,480 Climbing Albuquerque Center
04:16PM 33.7564 -111.9244 30° Northeast 244 281 12,700 3,120 Climbing Albuquerque Center
04:17PM 33.8228 -111.8808 29° Northeast 269 310 15,500 2,280 Climbing Albuquerque Center
04:18PM 33.9058 -111.8253 29° Northeast 343 395 17,500 2,460 Climbing Albuquerque Center
04:19PM 34.0189 -111.7486 29° Northeast 402 463 20,700 2,940 Climbing Albuquerque Center
04:20PM 34.1233 -111.6953 23° Northeast 408 470 23,600 2,700 Climbing Albuquerque Center
04:21PM 34.2261 -111.6597 16° North 412 474 26,300 2,520 Climbing Albuquerque Center
04:22PM 34.3372 -111.6164 18° North 418 481 28,900 2,160 Climbing Albuquerque Center
04:23PM 34.4786 -111.5603 18° North 440 506 30,800 1,920 Climbing Albuquerque Center
04:24PM 34.5872 -111.4739 33° Northeast 478 550 32,900 1,980 Climbing Albuquerque Center
04:25PM 34.6756 -111.3481 49° Northeast 488 562 35,000 1,920 Climbing Albuquerque Center
04:26PM 34.7636 -111.2217 50° Northeast 489 563 36,900 1,140 Climbing Albuquerque Center
04:27PM 34.8542 -111.0928 49° Northeast 497 572 37,400 960 Climbing Albuquerque Center
04:28PM 34.9450 -110.9619 50° Northeast 504 580 38,900 1,560 Climbing Albuquerque Center
04:29PM 35.0336 -110.8336 50° Northeast 498 573 40,600 1,020 Climbing Albuquerque Center
04:30PM 35.1303 -110.6928 50° Northeast 489 563 41,000 180 Climbing Albuquerque Center
04:31PM 35.2264 -110.5439 52° Northeast 497 572 41,000  Level Albuquerque Center
04:32PM 35.3061 -110.4175 52° Northeast 493 567 41,000  Level Albuquerque Center
04:33PM 35.4003 -110.2711 52° Northeast 491 565 41,000  Level Albuquerque Center
04:34PM 35.4817 -110.1433 52° Northeast 495 570 41,000  Level Albuquerque Center
04:35PM 35.5778 -109.9936 52° Northeast 499 574 41,000  Level Albuquerque Center
04:37PM 35.6578 -109.8647 53° Northeast 496 571 41,000  Level Albuquerque Center
04:38PM 35.7536 -109.7136 52° Northeast 500 575 41,000  Level Albuquerque Center
04:39PM 35.8369 -109.5831 52° Northeast 504 580 41,000  Level Albuquerque Center
04:39PM 35.8778 -109.5167 53° Northeast 509 586 41,000  Level Denver Center
04:40PM 35.9750 -109.3617 52° Northeast 509 586 41,000  Level Denver Center
04:41PM 36.0172 -109.2939 52° Northeast 511 588 41,000  Level Albuquerque Center
04:42PM 36.1092 -109.1461 52° Northeast 513 590 41,000  Level Albuquerque Center
04:42PM 36.1428 -109.0917 53° Northeast 513 590 41,000  Level Denver Center
04:43PM 36.2422 -108.9328 52° Northeast 513 590 41,000  Level Denver Center
04:44PM 36.3261 -108.7953 53° Northeast 514 592 41,000  Level Denver Center
04:45PM 36.4086 -108.6589 53° Northeast 514 592 41,000  Level Denver Center
04:46PM 36.4761 -108.4781 65° Northeast 518 596 41,000  Level Denver Center
04:47PM 36.5247 -108.3139 70° East 525 604 41,000  Level Denver Center
04:48PM 36.5831 -108.1231 69° East 528 608 41,000  Level Denver Center
04:49PM 36.6333 -107.9567 69° East 534 615 41,000  Level Denver Center
04:50PM 36.6853 -107.7914 69° East 536 617 41,000  Level Denver Center
04:51PM 36.7431 -107.5989 69° East 532 612 41,000  Level Denver Center
04:52PM 36.7936 -107.4322 69° East 535 616 41,000  Level Denver Center
04:53PM 36.8525 -107.2369 69° East 537 618 41,000  Level Denver Center
04:55PM 36.9017 -107.0700 70° East 534 615 41,000  Level Denver Center
04:56PM 36.9583 -106.8761 70° East 533 613 41,000  Level Denver Center
04:57PM 37.0100 -106.7103 69° East 534 615 41,000  Level Denver Center
04:58PM 37.0661 -106.5169 70° East 530 610 41,000  Level Denver Center
04:59PM 37.1144 -106.3506 70° East 528 608 41,000  Level Denver Center
05:00PM 37.1597 -106.1892 71° East 519 597 41,000  Level Denver Center
05:01PM 37.2164 -105.9989 69° East 521 600 41,000  Level Denver Center
05:02PM 37.2650 -105.8189 71° East 526 605 41,000  Level Denver Center
05:03PM 37.3150 -105.6344 71° East 537 618 41,000  Level Denver Center
05:04PM 37.3642 -105.4653 70° East 539 620 41,000  Level Denver Center
05:05PM 37.4203 -105.2683 70° East 536 617 41,000  Level Denver Center
05:06PM 37.4647 -105.1119 70° East 540 621 41,000  Level Denver Center
05:07PM 37.5186 -104.9150 71° East 535 616 41,000  Level Denver Center
05:08PM 37.5775 -104.6953 71° East 520 598 41,000  Level Denver Center
05:09PM 37.6239 -104.5242 71° East 535 616 41,000  Level Denver Center
05:10PM 37.6694 -104.3539 71° East 533 613 41,000  Level Denver Center
05:11PM 37.7219 -104.1597 71° East 520 598 41,000  Level Denver Center
05:12PM 37.7656 -103.9936 72° East 512 589 41,000  Level Denver Center
05:13PM 37.8100 -103.8267 71° East 517 595 41,000  Level Denver Center
05:14PM 37.8606 -103.6322 72° East 518 596 41,000  Level Denver Center
05:15PM 37.8975 -103.4919 72° East 523 602 41,000  Level Denver Center
05:16PM 37.9550 -103.2650 72° East 527 606 41,000  Level Denver Center
05:17PM 37.9997 -103.0922 72° East 536 617 41,000  Level Denver Center
05:18PM 38.0447 -102.9150 72° East 536 617 41,000  Level Denver Center
05:19PM 38.0964 -102.7128 72° East 539 620 41,000  Level Denver Center
05:20PM 38.1403 -102.5386 72° East 540 621 41,000  Level Denver Center
05:21PM 38.1825 -102.3644 73° East 539 620 41,000  Level Denver Center
05:22PM 38.2333 -102.1606 72° East 541 623 41,000  Level Denver Center
05:23PM 38.2758 -101.9850 73° East 542 624 41,000  Level Denver Center
05:25PM 38.3264 -101.7811 72° East 540 621 41,000  Level Denver Center
05:26PM 38.3683 -101.6058 73° East 539 620 41,000  Level Denver Center
05:27PM 38.4094 -101.4311 73° East 536 617 41,000  Level Denver Center
05:28PM 38.4575 -101.2275 73° East 535 616 41,000  Level Denver Center
05:29PM 38.4997 -101.0525 73° East 536 617 41,000  Level Denver Center
05:30PM 38.5478 -100.8492 73° East 536 617 41,000  Level Denver Center
05:31PM 38.5878 -100.6742 74° East 535 616 41,000  Level Denver Center
05:32PM 38.6278 -100.4994 74° East 534 615 41,000  Level Denver Center
05:33PM 38.6744 -100.2944 74° East 536 617 41,000  Level Denver Center
05:34PM 38.7142 -100.1200 74° East 533 613 41,000  Level Denver Center
05:35PM 38.7597 -99.9139 74° East 536 617 41,000  Level Denver Center
05:36PM 38.7997 -99.7378 74° East 537 618 41,000  Level Denver Center
05:37PM 38.8456 -99.5300 74° East 540 621 41,000  Level Denver Center
05:38PM 38.8836 -99.3522 75° East 539 620 41,000  Level Denver Center
05:39PM 38.9231 -99.1753 74° East 539 620 41,000  Level Denver Center
05:40PM 38.9631 -98.9842 75° East 540 621 41,000  Level Denver Center
05:40PM 38.9881 -98.8661 75° East 540 621 41,000  Level Kansas City Center
05:41PM 39.0269 -98.6803 75° East 537 618 41,000  Level Kansas City Center
05:43PM 39.0681 -98.4936 74° East 539 620 41,000  Level Kansas City Center
05:44PM 39.1061 -98.3067 75° East 540 621 41,000  Level Kansas City Center
05:45PM 39.1447 -98.1200 75° East 537 618 41,000  Level Kansas City Center
05:46PM 39.1836 -97.9317 75° East 540 621 41,000  Level Kansas City Center
05:47PM 39.2247 -97.7308 75° East 538 619 41,000  Level Kansas City Center
05:48PM 39.2650 -97.5289 75° East 542 624 41,000  Level Kansas City Center
05:49PM 39.3017 -97.3417 76° East 537 618 41,000  Level Kansas City Center
05:50PM 39.3378 -97.1639 75° East 535 616 41,000  Level Kansas City Center
05:51PM 39.3792 -96.9539 76° East 539 620 41,000  Level Kansas City Center
05:52PM 39.4142 -96.7733 76° East 540 621 41,000  Level Kansas City Center
05:53PM 39.4531 -96.5628 76° East 539 620 41,000  Level Kansas City Center
05:54PM 39.4869 -96.3922 76° East 540 621 41,000  Level Kansas City Center
05:55PM 39.5211 -96.2017 77° East 542 624 41,000  Level Kansas City Center
05:56PM 39.5614 -95.9883 76° East 541 623 41,000  Level Kansas City Center
05:57PM 39.6000 -95.7778 77° East 536 617 41,000  Level Kansas City Center
05:58PM 39.6325 -95.5972 77° East 533 613 41,000  Level Kansas City Center
05:59PM 39.6653 -95.4181 77° East 530 610 41,000  Level Kansas City Center
06:00PM 39.7017 -95.2094 77° East 527 606 41,000  Level Kansas City Center
06:01PM 39.7333 -95.0325 77° East 524 603 41,000  Level Kansas City Center
06:02PM 39.7700 -94.8256 77° East 524 603 41,000  Level Kansas City Center
06:03PM 39.8006 -94.6478 77° East 524 603 41,000  Level Kansas City Center
06:04PM 39.8303 -94.4706 78° East 524 603 41,000  Level Kansas City Center
06:05PM 39.8661 -94.2642 77° East 524 603 41,000  Level Kansas City Center
06:06PM 39.8958 -94.0756 78° East 524 603 41,000  Level Kansas City Center
06:07PM 39.9250 -93.8906 78° East 523 602 41,000  Level Kansas City Center
06:08PM 39.9556 -93.7086 78° East 521 600 41,000  Level Kansas City Center
06:09PM 39.9858 -93.5269 78° East 518 596 41,000  Level Kansas City Center
06:10PM 40.0208 -93.3092 78° East 517 595 41,000  Level Kansas City Center
06:11PM 40.0494 -93.1253 78° East 519 597 41,000  Level Kansas City Center
06:12PM 40.0808 -92.9381 78° East 520 598 41,000  Level Kansas City Center
06:13PM 40.1111 -92.7333 79° East 518 596 41,000  Level Kansas City Center
06:15PM 40.1383 -92.5553 79° East 519 597 41,000  Level Kansas City Center
06:16PM 40.1789 -92.3847 73° East 512 589 41,000 -300 Level Kansas City Center
06:17PM 40.2169 -92.1969 75° East 514 592 40,400 -1,140 Descending Kansas City Center
06:18PM 40.2519 -92.0217 75° East 507 583 38,800 -1,800 Descending Kansas City Center
06:19PM 40.2956 -91.8019 75° East 522 601 36,800 -1,800 Descending Kansas City Center
06:20PM 40.3333 -91.6158 75° East 533 613 35,000 -1,740 Descending Kansas City Center
06:21PM 40.3697 -91.4306 75° East 531 611 33,300 -1,680 Descending Kansas City Center
06:21PM 40.3847 -91.3594 74° East 521 600 32,700 -1,620 Descending Chicago Center
06:22PM 40.4247 -91.1550 76° East 508 585 31,000 -840 Descending Chicago Center
06:23PM 40.4603 -90.9703 76° East 523 602 31,000  Level Chicago Center
06:24PM 40.4956 -90.7825 76° East 531 611 31,000 -720 Level Chicago Center
06:25PM 40.5314 -90.5969 76° East 526 605 29,600 -1,560 Descending Chicago Center
06:26PM 40.5658 -90.4100 76° East 527 606 27,800 -1,860 Descending Chicago Center
06:27PM 40.6044 -90.2022 76° East 513 590 25,800 -1,800 Descending Chicago Center
06:28PM 40.6378 -90.0247 76° East 503 579 24,100 -900 Descending Chicago Center
06:29PM 40.6250 -89.8506 95° East 483 556 24,000 -60 Descending Chicago Center
06:30PM 40.6283 -89.6711 89° East 488 562 24,000 -1,620 Level Chicago Center
06:31PM 40.6658 -89.5081 73° East 489 563 20,700 -3,780 Descending Chicago Center
06:32PM 40.7556 -89.3614 51° Northeast 438 504 16,200 -3,060 Descending Chicago Center
06:34PM 40.8186 -89.2436 55° Northeast 407 468 14,400 -1,980 Descending Chicago Center
06:35PM 40.8856 -89.1419 49° Northeast 384 442 12,200 -1,680 Descending Chicago Center
06:36PM 40.9611 -89.0517 42° Northeast 373 429 11,000 -1,020 Descending Chicago Center
06:37PM 41.0328 -88.9622 43° Northeast 364 419 10,100 -540 Descending Chicago Center
06:38PM 41.1208 -88.8519 43° Northeast 363 418 10,000 -60 Descending Chicago Center
06:39PM 41.1969 -88.7592 43° Northeast 367 422 10,000 -420 Level Chicago Center
06:40PM 41.2631 -88.6742 44° Northeast 342 394 9,200 -1,080 Descending Chicago Center
06:41PM 41.3278 -88.5947 43° Northeast 322 371 7,800 -1,320 Descending Chicago Center
06:42PM 41.3908 -88.5153 43° Northeast 313 360 6,500 -960 Descending Chicago Center
06:43PM 41.4508 -88.4386 44° Northeast 302 348 5,900 -660 Descending Chicago Center
06:44PM 41.4942 -88.3506 57° Northeast 289 333 5,200 -540 Descending Chicago Center
06:45PM 41.5236 -88.2336 71° East 278 320 4,900 -120 Descending Chicago Center
06:46PM 41.5469 -88.1331 73° East 278 320 5,000  Climbing Chicago Center
06:47PM 41.5575 -88.0253 83° East 287 330 5,000  Level Chicago Center
06:48PM 41.5675 -87.9192 83° East 286 329 5,000 -180 Level Chicago Center
06:49PM 41.5778 -87.8217 82° East 272 313 4,700 -540 Descending Chicago Center
06:50PM 41.5844 -87.7350 84° East 247 284 3,900 -1,020 Descending Chicago Center
06:51PM 41.5886 -87.6492 86° East 238 274 2,600 -780 Descending Chicago Center
06:52PM 41.6411 -87.5886 41° Northeast 224 258 2,400 -60 Descending Chicago Center
06:53PM 41.7000 -87.6333 330° Northwest 201 231 2,500 -120 Climbing Chicago TRACON
06:54PM 41.7333 -87.6667 323° Northwest 167 192 2,200 -600 Descending Chicago TRACON
06:55PM 41.7500 -87.7167 294° West 164 189 1,400 -840 Descending Chicago TRACON